sensor_id;sensor_type;location;lat;lon;timestamp;pressure;altitude;pressure_sealevel;temperature
66113;BMP280;52893;52.870;5.822;2023-03-21T00:00:43;101476.88;;;10.09
66113;BMP280;52893;52.870;5.822;2023-03-21T00:03:11;101483.06;;;10.15
66113;BMP280;52893;52.870;5.822;2023-03-21T00:05:39;101477.09;;;10.13
66113;BMP280;52893;52.870;5.822;2023-03-21T00:08:07;101483.56;;;10.17
66113;BMP280;52893;52.870;5.822;2023-03-21T00:10:34;101481.44;;;10.14
66113;BMP280;52893;52.870;5.822;2023-03-21T00:13:03;101470.72;;;10.17
66113;BMP280;52893;52.870;5.822;2023-03-21T00:15:30;101472.63;;;10.17
66113;BMP280;52893;52.870;5.822;2023-03-21T00:17:58;101467.19;;;10.17
66113;BMP280;52893;52.870;5.822;2023-03-21T00:20:29;101462.13;;;10.10
66113;BMP280;52893;52.870;5.822;2023-03-21T00:22:59;101447.00;;;10.04
66113;BMP280;52893;52.870;5.822;2023-03-21T00:25:28;101464.94;;;10.19
66113;BMP280;52893;52.870;5.822;2023-03-21T00:27:57;101463.84;;;10.20
66113;BMP280;52893;52.870;5.822;2023-03-21T00:30:25;101453.94;;;10.10
66113;BMP280;52893;52.870;5.822;2023-03-21T00:32:52;101463.53;;;10.21
66113;BMP280;52893;52.870;5.822;2023-03-21T00:35:20;101465.47;;;10.21
66113;BMP280;52893;52.870;5.822;2023-03-21T00:37:47;101434.16;;;10.05
66113;BMP280;52893;52.870;5.822;2023-03-21T00:40:14;101467.88;;;10.22
66113;BMP280;52893;52.870;5.822;2023-03-21T00:42:42;101457.56;;;10.19
66113;BMP280;52893;52.870;5.822;2023-03-21T00:45:09;101461.31;;;10.23
66113;BMP280;52893;52.870;5.822;2023-03-21T00:47:38;101457.56;;;10.19
66113;BMP280;52893;52.870;5.822;2023-03-21T00:50:07;101454.72;;;10.24
66113;BMP280;52893;52.870;5.822;2023-03-21T00:52:34;101459.09;;;10.25
66113;BMP280;52893;52.870;5.822;2023-03-21T00:55:02;101456.16;;;10.22
66113;BMP280;52893;52.870;5.822;2023-03-21T00:57:29;101460.81;;;10.21
66113;BMP280;52893;52.870;5.822;2023-03-21T00:59:57;101450.41;;;10.23
66113;BMP280;52893;52.870;5.822;2023-03-21T01:02:24;101452.00;;;10.24
66113;BMP280;52893;52.870;5.822;2023-03-21T01:04:53;101429.59;;;10.14
66113;BMP280;52893;52.870;5.822;2023-03-21T01:07:20;101433.00;;;10.19
66113;BMP280;52893;52.870;5.822;2023-03-21T01:09:47;101427.19;;;10.12
66113;BMP280;52893;52.870;5.822;2023-03-21T01:12:18;101439.50;;;10.23
66113;BMP280;52893;52.870;5.822;2023-03-21T01:14:45;101435.97;;;10.23
66113;BMP280;52893;52.870;5.822;2023-03-21T01:17:12;101427.56;;;10.19
66113;BMP280;52893;52.870;5.822;2023-03-21T01:19:39;101393.56;;;10.03
66113;BMP280;52893;52.870;5.822;2023-03-21T01:22:09;101417.25;;;10.16
66113;BMP280;52893;52.870;5.822;2023-03-21T01:24:37;101432.41;;;10.22
66113;BMP280;52893;52.870;5.822;2023-03-21T01:27:04;101422.63;;;10.21
66113;BMP280;52893;52.870;5.822;2023-03-21T01:29:33;101413.44;;;10.17
66113;BMP280;52893;52.870;5.822;2023-03-21T01:32:00;101421.00;;;10.20
66113;BMP280;52893;52.870;5.822;2023-03-21T01:34:28;101406.69;;;10.15
66113;BMP280;52893;52.870;5.822;2023-03-21T01:36:55;101415.25;;;10.22
66113;BMP280;52893;52.870;5.822;2023-03-21T01:39:24;101412.81;;;10.20
66113;BMP280;52893;52.870;5.822;2023-03-21T01:41:51;101412.81;;;10.20
66113;BMP280;52893;52.870;5.822;2023-03-21T01:44:24;101410.06;;;10.20
66113;BMP280;52893;52.870;5.822;2023-03-21T01:46:52;101417.16;;;10.21
66113;BMP280;52893;52.870;5.822;2023-03-21T01:49:48;101407.34;;;10.20
66113;BMP280;52893;52.870;5.822;2023-03-21T01:52:23;101402.69;;;10.21
66113;BMP280;52893;52.870;5.822;2023-03-21T01:54:54;101395.63;;;10.20
66113;BMP280;52893;52.870;5.822;2023-03-21T01:57:26;101399.47;;;10.19
66113;BMP280;52893;52.870;5.822;2023-03-21T01:59:58;101396.44;;;10.20
66113;BMP280;52893;52.870;5.822;2023-03-21T02:02:47;101399.97;;;10.21
66113;BMP280;52893;52.870;5.822;2023-03-21T02:05:49;101385.44;;;10.12
66113;BMP280;52893;52.870;5.822;2023-03-21T02:08:19;101393.19;;;10.18
66113;BMP280;52893;52.870;5.822;2023-03-21T02:10:51;101392.09;;;10.19
66113;BMP280;52893;52.870;5.822;2023-03-21T02:13:31;101384.72;;;10.20
66113;BMP280;52893;52.870;5.822;2023-03-21T02:16:01;101373.50;;;10.21
66113;BMP280;52893;52.870;5.822;2023-03-21T02:18:41;101376.81;;;10.18
66113;BMP280;52893;52.870;5.822;2023-03-21T02:21:46;101353.00;;;10.10
66113;BMP280;52893;52.870;5.822;2023-03-21T02:24:37;101371.06;;;10.20
66113;BMP280;52893;52.870;5.822;2023-03-21T02:27:14;101369.97;;;10.21
66113;BMP280;52893;52.870;5.822;2023-03-21T02:30:08;101348.38;;;10.11
66113;BMP280;52893;52.870;5.822;2023-03-21T02:32:53;101361.47;;;10.22
66113;BMP280;52893;52.870;5.822;2023-03-21T02:35:44;101365.81;;;10.23
66113;BMP280;52893;52.870;5.822;2023-03-21T02:38:19;101361.47;;;10.22
66113;BMP280;52893;52.870;5.822;2023-03-21T02:40:52;101335.75;;;10.15
66113;BMP280;52893;52.870;5.822;2023-03-21T02:43:29;101353.78;;;10.24
66113;BMP280;52893;52.870;5.822;2023-03-21T02:46:04;101346.72;;;10.23
66113;BMP280;52893;52.870;5.822;2023-03-21T02:48:35;101343.47;;;10.21
66113;BMP280;52893;52.870;5.822;2023-03-21T02:51:05;101349.13;;;10.25
66113;BMP280;52893;52.870;5.822;2023-03-21T02:53:37;101345.59;;;10.24
66113;BMP280;52893;52.870;5.822;2023-03-21T02:56:08;101344.00;;;10.23
66113;BMP280;52893;52.870;5.822;2023-03-21T02:58:41;101343.66;;;10.25
66113;BMP280;52893;52.870;5.822;2023-03-21T03:01:10;101343.19;;;10.23
66113;BMP280;52893;52.870;5.822;2023-03-21T03:03:43;101333.09;;;10.23
66113;BMP280;52893;52.870;5.822;2023-03-21T03:06:16;101333.56;;;10.25
66113;BMP280;52893;52.870;5.822;2023-03-21T03:08:57;101333.91;;;10.24
66113;BMP280;52893;52.870;5.822;2023-03-21T03:11:32;101331.16;;;10.24
66113;BMP280;52893;52.870;5.822;2023-03-21T03:14:22;101326.81;;;10.23
66113;BMP280;52893;52.870;5.822;2023-03-21T03:17:03;101330.34;;;10.23
66113;BMP280;52893;52.870;5.822;2023-03-21T03:19:42;101324.38;;;10.21
66113;BMP280;52893;52.870;5.822;2023-03-21T03:22:14;101292.84;;;10.07
66113;BMP280;52893;52.870;5.822;2023-03-21T03:24:51;101324.91;;;10.23
66113;BMP280;52893;52.870;5.822;2023-03-21T03:27:24;101321.03;;;10.24
66113;BMP280;52893;52.870;5.822;2023-03-21T03:29:54;101319.44;;;10.23
66113;BMP280;52893;52.870;5.822;2023-03-21T03:32:30;101313.97;;;10.23
66113;BMP280;52893;52.870;5.822;2023-03-21T03:34:59;101311.44;;;10.27
66113;BMP280;52893;52.870;5.822;2023-03-21T03:37:32;101300.94;;;10.20
66113;BMP280;52893;52.870;5.822;2023-03-21T03:40:05;101307.91;;;10.27
66113;BMP280;52893;52.870;5.822;2023-03-21T03:42:37;101305.81;;;10.23
66113;BMP280;52893;52.870;5.822;2023-03-21T03:45:18;101302.56;;;10.21
66113;BMP280;52893;52.870;5.822;2023-03-21T03:47:49;101310.75;;;10.21
66113;BMP280;52893;52.870;5.822;2023-03-21T03:50:19;101304.19;;;10.22
66113;BMP280;52893;52.870;5.822;2023-03-21T03:52:53;101314.28;;;10.22
66113;BMP280;52893;52.870;5.822;2023-03-21T03:55:24;101298.72;;;10.22
66113;BMP280;52893;52.870;5.822;2023-03-21T03:57:55;101287.13;;;10.17
66113;BMP280;52893;52.870;5.822;2023-03-21T04:00:22;101298.44;;;10.24
66113;BMP280;52893;52.870;5.822;2023-03-21T04:02:50;101303.06;;;10.23
66113;BMP280;52893;52.870;5.822;2023-03-21T04:05:22;101296.81;;;10.23
66113;BMP280;52893;52.870;5.822;2023-03-21T04:07:50;101302.44;;;10.27
66113;BMP280;52893;52.870;5.822;2023-03-21T04:10:23;101297.63;;;10.23
66113;BMP280;52893;52.870;5.822;2023-03-21T04:12:50;101296.00;;;10.22
66113;BMP280;52893;52.870;5.822;2023-03-21T04:15:26;101298.09;;;10.25
66113;BMP280;52893;52.870;5.822;2023-03-21T04:18:00;101255.84;;;10.01
66113;BMP280;52893;52.870;5.822;2023-03-21T04:20:29;101290.25;;;10.24
66113;BMP280;52893;52.870;5.822;2023-03-21T04:22:56;101297.47;;;10.29
66113;BMP280;52893;52.870;5.822;2023-03-21T04:25:25;101288.78;;;10.27
66113;BMP280;52893;52.870;5.822;2023-03-21T04:27:57;101283.81;;;10.29
66113;BMP280;52893;52.870;5.822;2023-03-21T04:30:56;101292.00;;;10.29
66113;BMP280;52893;52.870;5.822;2023-03-21T04:33:24;101278.88;;;10.31
66113;BMP280;52893;52.870;5.822;2023-03-21T04:35:55;101283.53;;;10.30
66113;BMP280;52893;52.870;5.822;2023-03-21T04:38:25;101273.72;;;10.29
66113;BMP280;52893;52.870;5.822;2023-03-21T04:40:59;101278.38;;;10.29
66113;BMP280;52893;52.870;5.822;2023-03-21T04:43:28;101284.34;;;10.31
66113;BMP280;52893;52.870;5.822;2023-03-21T04:45:57;101279.34;;;10.33
66113;BMP280;52893;52.870;5.822;2023-03-21T04:48:24;101270.19;;;10.29
66113;BMP280;52893;52.870;5.822;2023-03-21T04:50:51;101262.63;;;10.25
66113;BMP280;52893;52.870;5.822;2023-03-21T04:53:18;101270.38;;;10.32
66113;BMP280;52893;52.870;5.822;2023-03-21T04:55:46;101270.69;;;10.31
66113;BMP280;52893;52.870;5.822;2023-03-21T04:58:16;101264.94;;;10.32
66113;BMP280;52893;52.870;5.822;2023-03-21T05:00:45;101267.97;;;10.31
66113;BMP280;52893;52.870;5.822;2023-03-21T05:03:12;101266.84;;;10.32
66113;BMP280;52893;52.870;5.822;2023-03-21T05:05:45;101271.16;;;10.33
66113;BMP280;52893;52.870;5.822;2023-03-21T05:08:14;101269.56;;;10.32
66113;BMP280;52893;52.870;5.822;2023-03-21T05:10:42;101259.59;;;10.27
66113;BMP280;52893;52.870;5.822;2023-03-21T05:13:10;101267.66;;;10.32
66113;BMP280;52893;52.870;5.822;2023-03-21T05:15:39;101264.94;;;10.32
66113;BMP280;52893;52.870;5.822;2023-03-21T05:18:07;101266.03;;;10.31
66113;BMP280;52893;52.870;5.822;2023-03-21T05:20:42;101266.03;;;10.31
66113;BMP280;52893;52.870;5.822;2023-03-21T05:23:10;101266.03;;;10.31
66113;BMP280;52893;52.870;5.822;2023-03-21T05:25:39;101267.16;;;10.30
66113;BMP280;52893;52.870;5.822;2023-03-21T05:28:21;101269.56;;;10.32
66113;BMP280;52893;52.870;5.822;2023-03-21T05:30:58;101267.66;;;10.32
66113;BMP280;52893;52.870;5.822;2023-03-21T05:33:26;101239.44;;;10.14
66113;BMP280;52893;52.870;5.822;2023-03-21T05:35:53;101241.06;;;10.15
66113;BMP280;52893;52.870;5.822;2023-03-21T05:38:20;101263.59;;;10.30
66113;BMP280;52893;52.870;5.822;2023-03-21T05:40:51;101262.31;;;10.27
66113;BMP280;52893;52.870;5.822;2023-03-21T05:43:20;101262.81;;;10.29
66113;BMP280;52893;52.870;5.822;2023-03-21T05:45:47;101263.59;;;10.30
66113;BMP280;52893;52.870;5.822;2023-03-21T05:48:18;101263.09;;;10.27
66113;BMP280;52893;52.870;5.822;2023-03-21T05:51:00;101256.53;;;10.29
66113;BMP280;52893;52.870;5.822;2023-03-21T05:53:27;101265.84;;;10.27
66113;BMP280;52893;52.870;5.822;2023-03-21T05:55:56;101258.78;;;10.27
66113;BMP280;52893;52.870;5.822;2023-03-21T05:58:40;101262.00;;;10.29
66113;BMP280;52893;52.870;5.822;2023-03-21T06:01:08;101267.44;;;10.29
66113;BMP280;52893;52.870;5.822;2023-03-21T06:03:40;101254.91;;;10.27
66113;BMP280;52893;52.870;5.822;2023-03-21T06:06:14;101262.63;;;10.25
66113;BMP280;52893;52.870;5.822;2023-03-21T06:08:51;101257.66;;;10.27
66113;BMP280;52893;52.870;5.822;2023-03-21T06:11:22;101259.59;;;10.27
66113;BMP280;52893;52.870;5.822;2023-03-21T06:13:54;101262.63;;;10.25
66113;BMP280;52893;52.870;5.822;2023-03-21T06:16:22;101261.81;;;10.25
66113;BMP280;52893;52.870;5.822;2023-03-21T06:18:51;101242.66;;;10.16
66113;BMP280;52893;52.870;5.822;2023-03-21T06:21:35;101251.66;;;10.17
66113;BMP280;52893;52.870;5.822;2023-03-21T06:24:06;101261.00;;;10.24
66113;BMP280;52893;52.870;5.822;2023-03-21T06:26:33;101242.19;;;10.14
66113;BMP280;52893;52.870;5.822;2023-03-21T06:29:01;101265.97;;;10.22
66113;BMP280;52893;52.870;5.822;2023-03-21T06:31:29;101248.75;;;10.13
66113;BMP280;52893;52.870;5.822;2023-03-21T06:34:02;101268.72;;;10.22
66113;BMP280;52893;52.870;5.822;2023-03-21T06:36:31;101245.34;;;10.08
66113;BMP280;52893;52.870;5.822;2023-03-21T06:38:59;101231.50;;;10.04
66113;BMP280;52893;52.870;5.822;2023-03-21T06:41:28;101270.31;;;10.23
66113;BMP280;52893;52.870;5.822;2023-03-21T06:44:00;101156.88;;;9.56
66113;BMP280;52893;52.870;5.822;2023-03-21T06:46:30;101263.25;;;10.22
66113;BMP280;52893;52.870;5.822;2023-03-21T06:48:58;101228.78;;;10.04
66113;BMP280;52893;52.870;5.822;2023-03-21T06:51:30;101159.00;;;9.59
66113;BMP280;52893;52.870;5.822;2023-03-21T06:54:13;101267.09;;;10.21
66113;BMP280;52893;52.870;5.822;2023-03-21T06:56:48;101263.25;;;10.22
66113;BMP280;52893;52.870;5.822;2023-03-21T06:59:23;101262.16;;;10.23
66113;BMP280;52893;52.870;5.822;2023-03-21T07:01:55;101264.06;;;10.23
66113;BMP280;52893;52.870;5.822;2023-03-21T07:04:26;101262.44;;;10.22
66113;BMP280;52893;52.870;5.822;2023-03-21T07:06:57;101266.47;;;10.24
66113;BMP280;52893;52.870;5.822;2023-03-21T07:09:26;101262.97;;;10.24
66113;BMP280;52893;52.870;5.822;2023-03-21T07:11:57;101266.97;;;10.27
66113;BMP280;52893;52.870;5.822;2023-03-21T07:14:34;101257.97;;;10.26
66113;BMP280;52893;52.870;5.822;2023-03-21T07:17:02;101270.81;;;10.25
66113;BMP280;52893;52.870;5.822;2023-03-21T07:19:29;101255.19;;;10.17
66113;BMP280;52893;52.870;5.822;2023-03-21T07:22:01;101192.34;;;9.78
66113;BMP280;52893;52.870;5.822;2023-03-21T07:24:28;101265.84;;;10.27
66113;BMP280;52893;52.870;5.822;2023-03-21T07:26:56;101270.50;;;10.27
66113;BMP280;52893;52.870;5.822;2023-03-21T07:29:24;101259.50;;;10.18
66113;BMP280;52893;52.870;5.822;2023-03-21T07:31:52;101267.78;;;10.27
66113;BMP280;52893;52.870;5.822;2023-03-21T07:34:21;101273.53;;;10.25
66113;BMP280;52893;52.870;5.822;2023-03-21T07:36:49;101272.91;;;10.29
66113;BMP280;52893;52.870;5.822;2023-03-21T07:39:18;101276.75;;;10.27
66113;BMP280;52893;52.870;5.822;2023-03-21T07:41:47;101276.16;;;10.31
66113;BMP280;52893;52.870;5.822;2023-03-21T07:44:30;101265.84;;;10.27
66113;BMP280;52893;52.870;5.822;2023-03-21T07:47:02;101248.50;;;10.23
66113;BMP280;52893;52.870;5.822;2023-03-21T07:49:31;101259.66;;;10.36
66113;BMP280;52893;52.870;5.822;2023-03-21T07:51:58;101265.09;;;10.36
66113;BMP280;52893;52.870;5.822;2023-03-21T07:54:28;101246.44;;;10.29
66113;BMP280;52893;52.870;5.822;2023-03-21T07:56:56;101243.41;;;10.31
66113;BMP280;52893;52.870;5.822;2023-03-21T07:59:23;101261.91;;;10.42
66113;BMP280;52893;52.870;5.822;2023-03-21T08:01:51;101204.59;;;10.11
66113;BMP280;52893;52.870;5.822;2023-03-21T08:04:18;101235.91;;;10.36
66113;BMP280;52893;52.870;5.822;2023-03-21T08:06:48;101235.56;;;10.38
66113;BMP280;52893;52.870;5.822;2023-03-21T08:09:16;101211.88;;;10.24
66113;BMP280;52893;52.870;5.822;2023-03-21T08:11:46;101252.97;;;10.50
66113;BMP280;52893;52.870;5.822;2023-03-21T08:14:14;101237.06;;;10.44
66113;BMP280;52893;52.870;5.822;2023-03-21T08:16:41;101255.59;;;10.55
66113;BMP280;52893;52.870;5.822;2023-03-21T08:19:09;101254.13;;;10.58
66113;BMP280;52893;52.870;5.822;2023-03-21T08:21:36;101255.44;;;10.60
66113;BMP280;52893;52.870;5.822;2023-03-21T08:24:04;101256.75;;;10.63
66113;BMP280;52893;52.870;5.822;2023-03-21T08:26:32;101252.72;;;10.60
66113;BMP280;52893;52.870;5.822;2023-03-21T08:29:02;101248.06;;;10.61
66113;BMP280;52893;52.870;5.822;2023-03-21T08:31:31;101246.44;;;10.60
66113;BMP280;52893;52.870;5.822;2023-03-21T08:33:58;101219.41;;;10.50
66113;BMP280;52893;52.870;5.822;2023-03-21T08:36:26;101242.59;;;10.61
66113;BMP280;52893;52.870;5.822;2023-03-21T08:38:56;101242.25;;;10.54
66113;BMP280;52893;52.870;5.822;2023-03-21T08:41:31;101239.81;;;10.52
66113;BMP280;52893;52.870;5.822;2023-03-21T08:44:00;101139.53;;;9.96
66113;BMP280;52893;52.870;5.822;2023-03-21T08:46:29;101236.28;;;10.52
66113;BMP280;52893;52.870;5.822;2023-03-21T08:48:57;101096.69;;;9.66
66113;BMP280;52893;52.870;5.822;2023-03-21T08:51:26;101234.53;;;10.56
66113;BMP280;52893;52.870;5.822;2023-03-21T08:53:54;101227.50;;;10.55
66113;BMP280;52893;52.870;5.822;2023-03-21T08:56:21;101161.28;;;10.18
66113;BMP280;52893;52.870;5.822;2023-03-21T08:58:49;101156.50;;;10.15
66113;BMP280;52893;52.870;5.822;2023-03-21T09:01:18;101224.94;;;10.67
66113;BMP280;52893;52.870;5.822;2023-03-21T09:03:47;101222.19;;;10.67
66113;BMP280;52893;52.870;5.822;2023-03-21T09:06:15;101221.09;;;10.68
66113;BMP280;52893;52.870;5.822;2023-03-21T09:08:42;101223.00;;;10.67
66113;BMP280;52893;52.870;5.822;2023-03-21T09:11:15;101211.91;;;10.55
66113;BMP280;52893;52.870;5.822;2023-03-21T09:13:43;101228.78;;;10.66
66113;BMP280;52893;52.870;5.822;2023-03-21T09:16:11;101149.28;;;10.19
66113;BMP280;52893;52.870;5.822;2023-03-21T09:18:39;101137.41;;;10.15
66113;BMP280;52893;52.870;5.822;2023-03-21T09:21:27;101188.91;;;10.48
66113;BMP280;52893;52.870;5.822;2023-03-21T09:24:00;101213.41;;;10.70
66113;BMP280;52893;52.870;5.822;2023-03-21T09:26:37;101164.13;;;10.36
66113;BMP280;52893;52.870;5.822;2023-03-21T09:29:16;101138.09;;;10.30
66113;BMP280;52893;52.870;5.822;2023-03-21T09:31:46;101093.03;;;10.01
66113;BMP280;52893;52.870;5.822;2023-03-21T09:34:16;101199.59;;;10.75
66113;BMP280;52893;52.870;5.822;2023-03-21T09:36:45;101203.47;;;10.74
66113;BMP280;52893;52.870;5.822;2023-03-21T09:39:20;101133.63;;;10.34
66113;BMP280;52893;52.870;5.822;2023-03-21T09:41:57;101168.06;;;10.60
66113;BMP280;52893;52.870;5.822;2023-03-21T09:44:36;101179.84;;;10.69
66113;BMP280;52893;52.870;5.822;2023-03-21T09:47:11;101197.34;;;10.77
66113;BMP280;52893;52.870;5.822;2023-03-21T09:49:45;101197.69;;;10.84
66113;BMP280;52893;52.870;5.822;2023-03-21T09:52:20;101193.84;;;10.85
66113;BMP280;52893;52.870;5.822;2023-03-21T09:54:49;101158.94;;;10.65
66113;BMP280;52893;52.870;5.822;2023-03-21T09:57:26;101191.44;;;10.84
66113;BMP280;52893;52.870;5.822;2023-03-21T09:59:57;101190.63;;;10.83
66113;BMP280;52893;52.870;5.822;2023-03-21T10:02:39;101190.50;;;10.88
66113;BMP280;52893;52.870;5.822;2023-03-21T10:05:17;101126.00;;;10.53
66113;BMP280;52893;52.870;5.822;2023-03-21T10:07:51;101161.72;;;10.82
66113;BMP280;52893;52.870;5.822;2023-03-21T10:10:24;101184.41;;;11.08
66113;BMP280;52893;52.870;5.822;2023-03-21T10:12:53;101185.88;;;11.14
66113;BMP280;52893;52.870;5.822;2023-03-21T10:15:22;101184.25;;;11.22
66113;BMP280;52893;52.870;5.822;2023-03-21T10:17:54;101129.47;;;10.93
66113;BMP280;52893;52.870;5.822;2023-03-21T10:20:25;101184.59;;;11.38
66113;BMP280;52893;52.870;5.822;2023-03-21T10:22:55;101177.38;;;11.42
66113;BMP280;52893;52.870;5.822;2023-03-21T10:25:29;101173.97;;;11.53
66113;BMP280;52893;52.870;5.822;2023-03-21T10:27:59;101163.34;;;11.52
66113;BMP280;52893;52.870;5.822;2023-03-21T10:30:33;101157.88;;;11.60
66113;BMP280;52893;52.870;5.822;2023-03-21T10:33:06;101161.91;;;11.80
66113;BMP280;52893;52.870;5.822;2023-03-21T10:35:35;101157.19;;;11.89
66113;BMP280;52893;52.870;5.822;2023-03-21T10:38:10;101150.44;;;11.95
66113;BMP280;52893;52.870;5.822;2023-03-21T10:40:40;101154.91;;;12.08
66113;BMP280;52893;52.870;5.822;2023-03-21T10:43:29;101162.25;;;12.17
66113;BMP280;52893;52.870;5.822;2023-03-21T10:46:10;101149.53;;;12.21
66113;BMP280;52893;52.870;5.822;2023-03-21T10:48:39;101134.56;;;12.18
66113;BMP280;52893;52.870;5.822;2023-03-21T10:51:15;101147.38;;;12.35
66113;BMP280;52893;52.870;5.822;2023-03-21T10:53:50;101144.78;;;12.38
66113;BMP280;52893;52.870;5.822;2023-03-21T10:56:22;101142.53;;;12.40
66113;BMP280;52893;52.870;5.822;2023-03-21T10:58:56;101099.25;;;12.25
66113;BMP280;52893;52.870;5.822;2023-03-21T11:01:27;101145.31;;;12.61
66113;BMP280;52893;52.870;5.822;2023-03-21T11:03:59;101130.34;;;12.58
66113;BMP280;52893;52.870;5.822;2023-03-21T11:06:30;101140.94;;;12.69
66113;BMP280;52893;52.870;5.822;2023-03-21T11:09:05;101103.88;;;12.42
66113;BMP280;52893;52.870;5.822;2023-03-21T11:11:37;101139.19;;;12.64
66113;BMP280;52893;52.870;5.822;2023-03-21T11:14:06;101139.19;;;12.64
66113;BMP280;52893;52.870;5.822;2023-03-21T11:16:37;101150.84;;;12.73
66113;BMP280;52893;52.870;5.822;2023-03-21T11:19:13;101144.97;;;12.71
66113;BMP280;52893;52.870;5.822;2023-03-21T11:21:41;101134.38;;;12.61
66113;BMP280;52893;52.870;5.822;2023-03-21T11:24:13;101130.19;;;12.55
66113;BMP280;52893;52.870;5.822;2023-03-21T11:26:42;101126.06;;;12.49
66113;BMP280;52893;52.870;5.822;2023-03-21T11:29:19;101133.41;;;12.57
66113;BMP280;52893;52.870;5.822;2023-03-21T11:31:49;101142.22;;;12.63
66113;BMP280;52893;52.870;5.822;2023-03-21T11:34:25;101128.13;;;12.52
66113;BMP280;52893;52.870;5.822;2023-03-21T11:36:58;101139.19;;;12.64
66113;BMP280;52893;52.870;5.822;2023-03-21T11:39:32;101140.25;;;12.72
66113;BMP280;52893;52.870;5.822;2023-03-21T11:42:02;101127.81;;;12.74
66113;BMP280;52893;52.870;5.822;2023-03-21T11:44:32;101114.97;;;12.66
66113;BMP280;52893;52.870;5.822;2023-03-21T11:47:01;101148.06;;;12.82
66113;BMP280;52893;52.870;5.822;2023-03-21T11:49:29;101108.97;;;12.52
66113;BMP280;52893;52.870;5.822;2023-03-21T11:52:04;101102.28;;;12.41
66113;BMP280;52893;52.870;5.822;2023-03-21T11:54:55;101136.34;;;12.73
66113;BMP280;52893;52.870;5.822;2023-03-21T11:57:34;101133.03;;;12.67
66113;BMP280;52893;52.870;5.822;2023-03-21T12:00:10;101129.69;;;12.62
66113;BMP280;52893;52.870;5.822;2023-03-21T12:02:56;101137.09;;;12.61
66113;BMP280;52893;52.870;5.822;2023-03-21T12:05:30;101127.41;;;12.64
66113;BMP280;52893;52.870;5.822;2023-03-21T12:08:02;101115.19;;;12.61
66113;BMP280;52893;52.870;5.822;2023-03-21T12:10:37;101118.38;;;12.63
66113;BMP280;52893;52.870;5.822;2023-03-21T12:13:20;101112.47;;;12.61
66113;BMP280;52893;52.870;5.822;2023-03-21T12:15:58;101042.59;;;12.26
66113;BMP280;52893;52.870;5.822;2023-03-21T12:18:41;101075.75;;;12.53
66113;BMP280;52893;52.870;5.822;2023-03-21T12:21:17;101104.53;;;12.89
66113;BMP280;52893;52.870;5.822;2023-03-21T12:23:57;101098.72;;;12.90
66113;BMP280;52893;52.870;5.822;2023-03-21T12:26:31;101102.84;;;12.96
66113;BMP280;52893;52.870;5.822;2023-03-21T12:29:12;101089.09;;;12.84
66113;BMP280;52893;52.870;5.822;2023-03-21T12:31:49;101104.72;;;13.04
66113;BMP280;52893;52.870;5.822;2023-03-21T12:34:29;101066.16;;;12.89
66113;BMP280;52893;52.870;5.822;2023-03-21T12:37:10;101090.13;;;13.13
66113;BMP280;52893;52.870;5.822;2023-03-21T12:39:39;101075.53;;;13.21
66113;BMP280;52893;52.870;5.822;2023-03-21T12:42:44;101079.69;;;13.39
66113;BMP280;52893;52.870;5.822;2023-03-21T12:45:17;100967.69;;;12.72
66113;BMP280;52893;52.870;5.822;2023-03-21T12:47:50;101086.13;;;13.43
66113;BMP280;52893;52.870;5.822;2023-03-21T12:50:24;101073.41;;;13.38
66113;BMP280;52893;52.870;5.822;2023-03-21T12:52:55;101054.13;;;13.35
66113;BMP280;52893;52.870;5.822;2023-03-21T12:55:26;101052.75;;;13.41
66113;BMP280;52893;52.870;5.822;2023-03-21T12:58:00;101071.50;;;13.51
66113;BMP280;52893;52.870;5.822;2023-03-21T13:00:33;101064.47;;;13.62
66113;BMP280;52893;52.870;5.822;2023-03-21T13:03:04;101065.59;;;13.61
66113;BMP280;52893;52.870;5.822;2023-03-21T13:05:38;101008.41;;;13.27
66113;BMP280;52893;52.870;5.822;2023-03-21T13:08:10;101055.19;;;13.67
66113;BMP280;52893;52.870;5.822;2023-03-21T13:10:43;101045.69;;;13.52
66113;BMP280;52893;52.870;5.822;2023-03-21T13:13:18;101052.22;;;13.60
66113;BMP280;52893;52.870;5.822;2023-03-21T13:15:52;101063.09;;;13.68
66113;BMP280;52893;52.870;5.822;2023-03-21T13:18:29;101050.53;;;13.79
66113;BMP280;52893;52.870;5.822;2023-03-21T13:21:01;101017.59;;;13.67
66113;BMP280;52893;52.870;5.822;2023-03-21T13:23:34;101049.63;;;13.87
66113;BMP280;52893;52.870;5.822;2023-03-21T13:26:01;101025.38;;;13.89
66113;BMP280;52893;52.870;5.822;2023-03-21T13:28:39;101029.72;;;14.02
66113;BMP280;52893;52.870;5.822;2023-03-21T13:31:16;101027.84;;;14.19
66113;BMP280;52893;52.870;5.822;2023-03-21T13:33:46;101034.03;;;14.16
66113;BMP280;52893;52.870;5.822;2023-03-21T13:36:17;101014.84;;;14.04
66113;BMP280;52893;52.870;5.822;2023-03-21T13:38:49;101012.56;;;14.06
66113;BMP280;52893;52.870;5.822;2023-03-21T13:41:20;101028.28;;;14.33
66113;BMP280;52893;52.870;5.822;2023-03-21T13:43:54;101024.97;;;14.27
66113;BMP280;52893;52.870;5.822;2023-03-21T13:46:36;101016.41;;;14.29
66113;BMP280;52893;52.870;5.822;2023-03-21T13:49:25;101000.91;;;14.36
66113;BMP280;52893;52.870;5.822;2023-03-21T13:51:54;101000.03;;;14.60
66113;BMP280;52893;52.870;5.822;2023-03-21T13:54:43;101000.97;;;14.64
66113;BMP280;52893;52.870;5.822;2023-03-21T13:57:36;101019.16;;;14.69
66113;BMP280;52893;52.870;5.822;2023-03-21T14:00:20;100984.94;;;14.54
66113;BMP280;52893;52.870;5.822;2023-03-21T14:02:55;100966.22;;;14.44
66113;BMP280;52893;52.870;5.822;2023-03-21T14:05:24;101000.03;;;14.60
66113;BMP280;52893;52.870;5.822;2023-03-21T14:07:54;101001.44;;;14.54
66113;BMP280;52893;52.870;5.822;2023-03-21T14:10:27;100988.41;;;14.51
66113;BMP280;52893;52.870;5.822;2023-03-21T14:12:56;100988.16;;;14.56
66113;BMP280;52893;52.870;5.822;2023-03-21T14:15:30;100978.31;;;14.55
66113;BMP280;52893;52.870;5.822;2023-03-21T14:18:00;100968.31;;;14.35
66113;BMP280;52893;52.870;5.822;2023-03-21T14:20:32;100982.22;;;14.42
66113;BMP280;52893;52.870;5.822;2023-03-21T14:23:02;100984.09;;;14.38
66113;BMP280;52893;52.870;5.822;2023-03-21T14:25:32;100977.16;;;14.28